EGLLCYYR

Guest
Details From EGLL - London Heathrow
To CYYR - Goose Bay
Flight Number -
Tags Generated
Created
Modified
Stats Distance 2,134 nm / 3,953 km
Max Altitude 0 ft / 0 m
Waypoints 4
Social Downloads 2
Likes 0
Share VATSIM

Download

Looking for another format? Having issues loading an existing format? Contact us
Advertisement - Login to hide

Notes

Generated

Route

EGLL BAL35 BIMVI CYYR

ID Type Via Altitude Latitude Longitude Leg Dist Tot Dist Heading (true) Name
O EGLL APT - 0 ft / 0 m 51.46477˚ -0.48695˚ - 0 nm - -
BAL35 FIX - 0 ft / 0 m 53.22462˚ -6.59622˚ 247 nm 247 nm 298° / 293° -
BIMVI FIX - 0 ft / 0 m 53.36501˚ -60.29979˚ 1881 nm 2129 nm 292° / 248° -
O CYYR APT - 0 ft / 0 m 53.33389˚ -60.43639˚ 5 nm 2134 nm 249° / 249° -

Altitude Profile

Advertisement - Login to hide

Weather


0- 5 10 15 20 25 30 35+ Temperature / ° C

Clouds and Precipitation
Forecast for 2018-05-22 00:00 UTC. Updated 5 hours ago

Ground ~20,000 ft ~40,000 ft Winds

EGLL

Details ICAO EGLL (LHR)
Name London Heathrow
Region United Kingdom
Timezone Europe/London (UTC+1.0)
Stats Elevation 83 ft / 25 m (AMSL)
Location 51.471218° -0.460978°
Runways 2
Magnetic Variation 0.496° W

METAR

EGLL 220420Z AUTO 35005KT 300V030 9999 NCD 12/09 Q1015 NOSIG

Decode

TAF

TAF EGLL 212303Z 2200/2306 01005KT 9999 FEW045 PROB30 TEMPO 2200/2209 8000 -SHRA PROB30 TEMPO 2213/2217 4000 +SHRA PROB30 TEMPO 2300/2306 7000

Decode

Departure Runways

ID Width Length Bearing (true) Bearing (mag) Surface Threshold Offset Overrun Length
09L 164 ft / 50 m 12,811 ft / 3,905 m 89.64° 90.14° Asphalt 1,004 ft / 306 m 0 ft / 0 m
09R 164 ft / 50 m 12,019 ft / 3,663 m 89.67° 90.17° Asphalt 1,007 ft / 307 m 0 ft / 0 m
27L 164 ft / 50 m 12,019 ft / 3,663 m 269.71° 270.21° Asphalt 0 ft / 0 m 69 ft / 21 m
27R 164 ft / 50 m 12,811 ft / 3,905 m 269.69° 270.19° Asphalt 0 ft / 0 m 69 ft / 21 m

CYYR

Details ICAO CYYR (YYR)
Name Goose Bay
Region Canada
Timezone America/Goose_Bay (UTC-3.0)
Stats Elevation 160 ft / 49 m (AMSL)
Location 53.318820° -60.423890°
Runways 2
Magnetic Variation 20.870° W

METAR

CYYR 220400Z 32011KT 15SM FEW050 FEW120 FEW230 00/M08 A2987 RMK SC1AC1CI1 SLP119

Decode

TAF

TAF CYYR 212333Z 2200/2224 06005KT P6SM FEW025 BKN040 TEMPO 2200/2203 6SM -SHRASN BR OVC020 FM220300 VRB03KT P6SM FEW020 BKN060 TEMPO 2203/2208 5SM -SHSN BKN020 OVC060 FM220800 29008KT P6SM SCT020 FM221500 26012KT 6SM -SHRA BKN030 FM222000 27012G22KT 5SM -SHRASN BR OVC030 RMK NXT FCST BY 220600Z

Decode

Destination Runways

ID Width Length Bearing (true) Bearing (mag) Surface Threshold Offset Overrun Length
08 209 ft / 64 m 11,055 ft / 3,369 m 54.70° 75.57° Asphalt 0 ft / 0 m 1,000 ft / 305 m
16 200 ft / 61 m 9,515 ft / 2,900 m 132.96° 153.83° Asphalt 0 ft / 0 m 0 ft / 0 m
26 209 ft / 64 m 11,055 ft / 3,369 m 234.73° 255.60° Asphalt 0 ft / 0 m 1,000 ft / 305 m
34 200 ft / 61 m 9,515 ft / 2,900 m 312.99° 333.86° Asphalt 0 ft / 0 m 500 ft / 152 m

Popular Alternatives